Time;durP1;ratioP1;P1;durP2;ratioP2;P2;SDS_P1;SDS_P2;PMS_P1;PMS_P2;Temp;Humidity;BMP_temperature;BMP_pressure;BME280_temperature;BME280_humidity;BME280_pressure;Samples;Min_cycle;Max_cycle;Signal;HPM_P1;HPM_P2
2022/05/23 00:02:08;;;;;;;22.55;10.20;;;;;;;;;;5039517;28;20656;-53
2022/05/23 00:04:34;;;;;;;24.50;11.27;;;;;;;;;;5038914;28;20131;-55
2022/05/23 00:07:16;;;;;;;29.27;11.20;;;;;;;;;;5044949;28;20037;-53
2022/05/23 00:09:42;;;;;;;31.02;11.50;;;;;;;;;;5039900;28;20078;-53
2022/05/23 00:12:16;;;;;;;25.48;11.00;;;;;;;;;;5041612;28;20128;-52
2022/05/23 00:14:43;;;;;;;30.47;12.37;;;;;;;;;;5043137;28;20508;-54
2022/05/23 00:17:11;;;;;;;28.85;12.45;;;;;;;;;;5043047;28;20057;-54
2022/05/23 00:19:44;;;;;;;33.95;14.95;;;;;;;;;;5040442;28;20053;-51
2022/05/23 00:22:10;;;;;;;31.23;14.23;;;;;;;;;;5041759;28;20080;-51
2022/05/23 00:24:37;;;;;;;36.13;15.35;;;;;;;;;;5041294;28;20073;-53
2022/05/23 00:27:12;;;;;;;124.10;16.67;;;;;;;;;;5037745;28;20615;-55
2022/05/23 00:29:39;;;;;;;382.08;24.08;;;;;;;;;;5043029;28;20053;-54
2022/05/23 00:37:49;;;;;;;119.28;18.50;;;;;;;;;;5041408;28;20124;-47
2022/05/23 00:40:26;;;;;;;126.57;18.35;;;;;;;;;;5040328;28;20084;-51
2022/05/23 00:43:14;;;;;;;156.23;20.98;;;;;;;;;;5038859;28;20087;-51
2022/05/23 00:45:49;;;;;;;132.18;19.17;;;;;;;;;;5042747;28;20049;-51
2022/05/23 00:48:30;;;;;;;227.50;22.83;;;;;;;;;;5039669;28;20539;-53
2022/05/23 00:51:09;;;;;;;201.30;16.75;;;;;;;;;;5040902;28;20076;-54
2022/05/23 00:53:40;;;;;;;269.42;22.65;;;;;;;;;;5038908;28;20472;-55
2022/05/23 00:56:13;;;;;;;;;;;;;;;;;;5043008;28;20084;-46
2022/05/23 00:58:45;;;;;;;226.38;18.80;;;;;;;;;;5038761;28;19956;-51
2022/05/23 01:01:12;;;;;;;184.05;19.23;;;;;;;;;;5037646;28;20564;-51
2022/05/23 01:03:46;;;;;;;284.38;24.52;;;;;;;;;;5039360;28;20494;-51
2022/05/23 01:06:12;;;;;;;109.78;16.65;;;;;;;;;;5040081;28;20054;-50
2022/05/23 01:08:39;;;;;;;150.88;16.25;;;;;;;;;;5041156;28;20103;-51
2022/05/23 01:11:13;;;;;;;156.48;16.92;;;;;;;;;;5037973;28;20137;-50
2022/05/23 01:13:39;;;;;;;131.18;15.05;;;;;;;;;;5043953;28;20075;-51
2022/05/23 01:16:06;;;;;;;115.40;18.02;;;;;;;;;;5035438;28;20053;-52
2022/05/23 01:18:39;;;;;;;152.32;16.73;;;;;;;;;;5040768;28;20119;-47
2022/05/23 01:21:09;;;;;;;144.10;18.10;;;;;;;;;;5036225;28;20049;-53
2022/05/23 01:23:38;;;;;;;292.13;22.65;;;;;;;;;;5041894;28;20085;-49
2022/05/23 01:26:12;;;;;;;222.80;20.85;;;;;;;;;;5037284;28;20135;-49
2022/05/23 01:28:38;;;;;;;92.80;13.82;;;;;;;;;;5039528;28;20080;-52
2022/05/23 01:31:05;;;;;;;186.13;17.93;;;;;;;;;;5038655;28;20481;-53
2022/05/23 01:33:39;;;;;;;115.80;15.15;;;;;;;;;;5037409;28;20107;-49
2022/05/23 01:36:10;;;;;;;120.83;11.67;;;;;;;;;;5042346;28;20088;-55
2022/05/23 01:38:36;;;;;;;117.55;12.05;;;;;;;;;;5039089;28;20077;-45
2022/05/23 01:41:10;;;;;;;121.40;12.25;;;;;;;;;;5039084;28;20050;-46
2022/05/23 01:43:36;;;;;;;136.20;14.23;;;;;;;;;;5041011;28;20677;-46
2022/05/23 01:46:03;;;;;;;61.38;11.15;;;;;;;;;;5041049;28;20882;-49
2022/05/23 01:48:42;;;;;;;60.78;12.07;;;;;;;;;;5038425;28;20505;-47
2022/05/23 01:51:08;;;;;;;61.05;10.57;;;;;;;;;;5038905;28;20120;-48
2022/05/23 01:53:35;;;;;;;67.32;10.23;;;;;;;;;;5036335;28;20093;-53
2022/05/23 01:56:08;;;;;;;43.30;9.02;;;;;;;;;;5038236;28;20520;-50
2022/05/23 02:01:26;;;;;;;16.05;7.57;;;;;;;;;;5039746;28;20099;-51
2022/05/23 02:03:53;;;;;;;24.70;7.07;;;;;;;;;;5039678;28;20128;-54
2022/05/23 02:06:20;;;;;;;39.22;9.00;;;;;;;;;;5036079;28;20123;-53
2022/05/23 02:08:54;;;;;;;76.07;12.90;;;;;;;;;;5037148;28;20128;-52
2022/05/23 02:11:20;;;;;;;80.78;10.70;;;;;;;;;;5037117;28;20072;-52
2022/05/23 02:13:47;;;;;;;82.30;10.70;;;;;;;;;;5036838;28;20080;-50
2022/05/23 02:16:23;;;;;;;56.25;11.35;;;;;;;;;;5036319;28;20481;-50
2022/05/23 02:18:50;;;;;;;97.25;12.05;;;;;;;;;;5039226;28;20083;-49
2022/05/23 02:21:16;;;;;;;82.57;11.43;;;;;;;;;;5038309;28;20049;-53
2022/05/23 02:23:50;;;;;;;30.52;8.98;;;;;;;;;;5039628;28;20084;-49
2022/05/23 02:26:16;;;;;;;70.00;10.63;;;;;;;;;;5036989;28;20053;-53
2022/05/23 02:28:42;;;;;;;41.22;10.23;;;;;;;;;;5038589;28;20543;-49
2022/05/23 02:31:16;;;;;;;54.03;9.63;;;;;;;;;;5036097;28;20097;-44
2022/05/23 02:33:42;;;;;;;48.70;10.00;;;;;;;;;;5042164;28;20445;-46
2022/05/23 02:36:09;;;;;;;81.35;9.20;;;;;;;;;;5040612;28;20610;-50
2022/05/23 02:38:42;;;;;;;54.10;8.93;;;;;;;;;;5035855;28;20092;-50
2022/05/23 02:41:08;;;;;;;36.97;10.10;;;;;;;;;;5038234;28;20096;-51
2022/05/23 02:43:34;;;;;;;30.25;9.43;;;;;;;;;;5036151;28;20095;-52
2022/05/23 02:46:10;;;;;;;73.40;11.32;;;;;;;;;;5035390;28;20099;-48
2022/05/23 02:48:43;;;;;;;48.45;9.25;;;;;;;;;;5032877;28;20064;-53
2022/05/23 02:51:17;;;;;;;23.20;8.18;;;;;;;;;;5039286;28;20081;-46
2022/05/23 02:53:43;;;;;;;25.42;9.32;;;;;;;;;;5040006;28;20142;-43
2022/05/23 02:56:10;;;;;;;53.03;10.68;;;;;;;;;;5037441;28;20099;-51
2022/05/23 02:58:44;;;;;;;46.85;10.70;;;;;;;;;;5034410;28;20053;-53
2022/05/23 03:01:11;;;;;;;18.80;7.88;;;;;;;;;;5040132;28;20052;-53
2022/05/23 03:03:39;;;;;;;30.52;10.75;;;;;;;;;;5035801;28;20056;-54
2022/05/23 03:06:12;;;;;;;21.52;9.70;;;;;;;;;;5034331;28;20049;-56
2022/05/23 03:08:38;;;;;;;38.50;9.90;;;;;;;;;;5040508;28;20520;-55
2022/05/23 03:11:06;;;;;;;63.17;10.82;;;;;;;;;;5037430;28;20049;-51
2022/05/23 03:13:40;;;;;;;32.42;10.05;;;;;;;;;;5038236;28;20088;-52
2022/05/23 03:16:10;;;;;;;21.05;10.38;;;;;;;;;;5038704;28;20393;-48
2022/05/23 03:18:37;;;;;;;22.48;10.25;;;;;;;;;;5037484;28;20064;-51
2022/05/23 03:26:59;;;;;;;14.05;9.02;;;;;;;;;;5035173;28;20053;-50
2022/05/23 03:29:26;;;;;;;14.77;8.80;;;;;;;;;;5038791;28;20207;-54
2022/05/23 03:31:52;;;;;;;14.02;8.25;;;;;;;;;;5034961;28;20095;-52
2022/05/23 03:34:26;;;;;;;14.15;7.88;;;;;;;;;;5036454;28;20057;-53
2022/05/23 03:36:52;;;;;;;13.30;8.55;;;;;;;;;;5038172;28;20064;-52
2022/05/23 03:39:18;;;;;;;11.55;7.28;;;;;;;;;;5036898;28;20545;-53
2022/05/23 03:41:52;;;;;;;13.02;7.38;;;;;;;;;;5037399;28;20045;-47
2022/05/23 03:44:19;;;;;;;13.95;7.50;;;;;;;;;;5039090;28;20717;-50
2022/05/23 03:46:45;;;;;;;10.95;7.05;;;;;;;;;;5040014;28;20489;-51
2022/05/23 03:49:25;;;;;;;11.75;6.90;;;;;;;;;;5033232;28;20045;-52
2022/05/23 03:51:51;;;;;;;11.07;6.65;;;;;;;;;;5039366;28;20041;-53
2022/05/23 03:54:18;;;;;;;9.52;6.10;;;;;;;;;;5034792;28;20512;-53
2022/05/23 03:56:56;;;;;;;11.55;7.43;;;;;;;;;;5037480;28;20041;-52
2022/05/23 03:59:22;;;;;;;8.95;6.75;;;;;;;;;;5037186;28;20610;-51
2022/05/23 04:01:49;;;;;;;10.48;6.95;;;;;;;;;;5040603;28;20760;-51
2022/05/23 04:04:27;;;;;;;7.32;6.00;;;;;;;;;;5033456;28;20053;-49
2022/05/23 04:07:00;;;;;;;9.40;6.10;;;;;;;;;;5040316;28;20049;-54
2022/05/23 04:09:34;;;;;;;7.93;5.47;;;;;;;;;;5036251;28;20087;-54
2022/05/23 04:12:00;;;;;;;5.47;4.78;;;;;;;;;;5034671;28;20049;-51
2022/05/23 04:14:27;;;;;;;5.00;4.20;;;;;;;;;;5036605;28;20076;-52
2022/05/23 04:17:01;;;;;;;5.20;4.10;;;;;;;;;;5036567;28;20092;-54
2022/05/23 04:19:27;;;;;;;6.15;4.20;;;;;;;;;;5037261;28;20137;-49
2022/05/23 04:21:54;;;;;;;4.35;3.70;;;;;;;;;;5035170;28;20079;-50
2022/05/23 04:24:27;;;;;;;4.47;3.78;;;;;;;;;;5025777;28;20045;-51
2022/05/23 04:26:54;;;;;;;4.20;3.78;;;;;;;;;;5039010;28;20053;-50
2022/05/23 04:29:21;;;;;;;;;;;;;;;;;;5038759;28;20053;-44
2022/05/23 04:31:54;;;;;;;5.95;3.97;;;;;;;;;;5040061;28;19921;-54
2022/05/23 04:37:13;;;;;;;3.95;3.17;;;;;;;;;;5040780;28;20072;-48
2022/05/23 04:39:39;;;;;;;5.40;2.95;;;;;;;;;;5042394;28;20896;-51
2022/05/23 04:42:06;;;;;;;4.22;3.30;;;;;;;;;;5038564;28;20096;-47
2022/05/23 04:44:39;;;;;;;4.82;3.17;;;;;;;;;;5042029;28;20573;-46
2022/05/23 04:50:16;;;;;;;4.18;3.40;;;;;;;;;;5039016;28;20168;-52
2022/05/23 04:52:43;;;;;;;4.07;3.42;;;;;;;;;;5036620;28;20103;-51
2022/05/23 04:55:17;;;;;;;8.18;4.30;;;;;;;;;;5039753;28;20693;-51
2022/05/23 04:57:44;;;;;;;8.82;3.80;;;;;;;;;;5040682;28;20558;-51
2022/05/23 05:00:11;;;;;;;5.97;3.83;;;;;;;;;;5038484;28;20088;-46
2022/05/23 05:02:46;;;;;;;6.88;4.00;;;;;;;;;;5025286;28;20127;-53
2022/05/23 05:05:12;;;;;;;5.53;4.05;;;;;;;;;;5040417;28;20053;-53
2022/05/23 05:07:57;;;;;;;6.25;4.05;;;;;;;;;;5042868;28;20090;-48
2022/05/23 05:10:30;;;;;;;5.78;3.58;;;;;;;;;;5041017;28;20599;-51
2022/05/23 05:12:57;;;;;;;7.03;3.83;;;;;;;;;;5042553;28;20079;-47
2022/05/23 05:15:24;;;;;;;5.07;3.65;;;;;;;;;;5038198;28;20348;-46
2022/05/23 05:17:58;;;;;;;8.65;3.30;;;;;;;;;;5041865;28;20556;-50
2022/05/23 05:20:24;;;;;;;8.02;3.63;;;;;;;;;;5036956;28;20092;-48
2022/05/23 05:22:51;;;;;;;7.22;3.75;;;;;;;;;;5040243;28;20136;-52
2022/05/23 05:25:24;;;;;;;7.63;3.65;;;;;;;;;;5040013;28;20792;-55
2022/05/23 05:27:50;;;;;;;8.50;3.55;;;;;;;;;;5036819;28;20698;-53
2022/05/23 05:30:20;;;;;;;8.57;3.92;;;;;;;;;;5038734;28;20393;-55
2022/05/23 05:32:53;;;;;;;9.70;3.58;;;;;;;;;;5041656;28;20128;-51
2022/05/23 05:35:27;;;;;;;6.45;3.40;;;;;;;;;;5039606;28;20045;-54
2022/05/23 05:38:00;;;;;;;8.75;2.80;;;;;;;;;;5041440;28;20625;-53
2022/05/23 05:40:28;;;;;;;13.45;2.90;;;;;;;;;;5040855;28;20050;-54
2022/05/23 05:42:57;;;;;;;6.50;2.40;;;;;;;;;;5039196;28;20088;-51
2022/05/23 05:45:35;;;;;;;8.88;2.15;;;;;;;;;;5038630;28;20080;-52
2022/05/23 05:48:09;;;;;;;5.40;2.30;;;;;;;;;;5026138;28;20145;-51
2022/05/23 05:50:44;;;;;;;6.25;2.25;;;;;;;;;;5020949;28;20079;-48
2022/05/23 05:53:13;;;;;;;7.70;2.13;;;;;;;;;;5016873;28;20091;-52
2022/05/23 05:55:40;;;;;;;4.95;1.80;;;;;;;;;;5023168;28;20087;-49
2022/05/23 05:58:13;;;;;;;10.73;2.60;;;;;;;;;;5018219;28;20103;-53
2022/05/23 06:00:45;;;;;;;14.13;2.50;;;;;;;;;;5018410;28;20054;-43
2022/05/23 06:03:12;;;;;;;4.95;2.03;;;;;;;;;;5020253;28;20104;-44
2022/05/23 06:11:24;;;;;;;6.40;2.25;;;;;;;;;;5020103;28;20072;-51
2022/05/23 06:13:51;;;;;;;9.57;2.17;;;;;;;;;;5021270;28;20053;-52
2022/05/23 06:16:18;;;;;;;7.40;2.15;;;;;;;;;;5014701;28;20081;-51
2022/05/23 06:18:53;;;;;;;5.45;1.98;;;;;;;;;;5019044;28;20091;-51
2022/05/23 06:21:20;;;;;;;9.10;2.47;;;;;;;;;;5015119;28;20573;-53
2022/05/23 06:23:46;;;;;;;10.10;2.17;;;;;;;;;;5018128;28;20080;-53
2022/05/23 06:26:23;;;;;;;5.18;1.92;;;;;;;;;;5018193;28;20046;-53
2022/05/23 06:28:50;;;;;;;7.45;2.25;;;;;;;;;;5018470;28;20104;-49
2022/05/23 06:31:18;;;;;;;8.77;2.22;;;;;;;;;;5018561;28;20093;-53
2022/05/23 06:33:51;;;;;;;5.65;1.88;;;;;;;;;;5022757;28;20107;-53
2022/05/23 06:36:18;;;;;;;5.55;1.88;;;;;;;;;;5015219;28;20085;-49
2022/05/23 06:38:44;;;;;;;7.55;2.25;;;;;;;;;;5019029;28;20050;-49
2022/05/23 06:41:18;;;;;;;6.43;1.90;;;;;;;;;;5015730;28;20437;-53
2022/05/23 06:43:45;;;;;;;10.38;1.88;;;;;;;;;;5014939;28;20081;-48
2022/05/23 06:46:12;;;;;;;5.65;1.58;;;;;;;;;;5020195;28;20128;-48
2022/05/23 06:48:53;;;;;;;9.63;1.70;;;;;;;;;;5035512;28;20045;-49
2022/05/23 06:51:20;;;;;;;7.65;1.80;;;;;;;;;;5038076;28;20057;-50
2022/05/23 06:53:55;;;;;;;6.57;1.67;;;;;;;;;;5034606;28;20057;-46
2022/05/23 06:56:21;;;;;;;7.85;1.65;;;;;;;;;;5037045;28;20053;-51
2022/05/23 06:58:47;;;;;;;13.70;2.53;;;;;;;;;;5039801;28;20045;-55
2022/05/23 07:01:21;;;;;;;7.50;1.67;;;;;;;;;;5040798;28;20107;-47
2022/05/23 07:03:47;;;;;;;4.22;1.42;;;;;;;;;;5035095;28;20057;-49
2022/05/23 07:14:51;;;;;;;5.90;1.55;;;;;;;;;;5036530;28;20088;-52
2022/05/23 07:17:18;;;;;;;4.43;1.48;;;;;;;;;;5037524;28;20418;-51
2022/05/23 07:19:44;;;;;;;9.13;1.88;;;;;;;;;;5038863;28;20127;-50
2022/05/23 07:22:18;;;;;;;4.93;1.50;;;;;;;;;;5038990;28;20546;-57
2022/05/23 07:24:44;;;;;;;6.43;1.83;;;;;;;;;;5021406;28;20136;-57
2022/05/23 07:27:12;;;;;;;6.47;1.75;;;;;;;;;;5034811;28;20048;-55
2022/05/23 07:29:45;;;;;;;3.97;1.90;;;;;;;;;;5038169;28;20515;-55
2022/05/23 07:32:15;;;;;;;10.40;1.58;;;;;;;;;;5036176;28;20049;-56
2022/05/23 07:34:43;;;;;;;5.47;1.35;;;;;;;;;;5036002;28;20111;-55
2022/05/23 07:37:16;;;;;;;4.00;1.42;;;;;;;;;;5036965;28;20562;-51
2022/05/23 07:39:43;;;;;;;3.85;1.48;;;;;;;;;;5038261;28;20543;-51
2022/05/23 07:42:09;;;;;;;6.38;1.88;;;;;;;;;;5035877;28;20172;-55
2022/05/23 07:44:43;;;;;;;4.82;1.42;;;;;;;;;;5040356;28;20136;-51
2022/05/23 07:47:16;;;;;;;4.85;1.40;;;;;;;;;;5038577;28;20118;-53
2022/05/23 07:49:56;;;;;;;4.63;1.40;;;;;;;;;;5037152;28;20049;-55
2022/05/23 07:52:23;;;;;;;3.67;1.30;;;;;;;;;;5037480;28;20347;-53
2022/05/23 08:00:34;;;;;;;5.85;1.25;;;;;;;;;;5038038;28;20077;-56
2022/05/23 08:03:00;;;;;;;2.70;1.10;;;;;;;;;;5036725;28;20073;-54
2022/05/23 08:05:27;;;;;;;3.22;1.20;;;;;;;;;;5037907;28;20060;-54
2022/05/23 08:08:01;;;;;;;3.90;1.17;;;;;;;;;;5039699;28;20077;-55
2022/05/23 08:10:27;;;;;;;2.75;1.20;;;;;;;;;;5041109;28;20585;-54
2022/05/23 08:12:55;;;;;;;5.45;1.52;;;;;;;;;;5038088;28;20099;-52
2022/05/23 08:15:28;;;;;;;4.47;1.48;;;;;;;;;;5042149;28;20087;-52
2022/05/23 08:17:55;;;;;;;5.43;1.15;;;;;;;;;;5039171;28;20459;-53
2022/05/23 08:20:24;;;;;;;5.55;2.15;;;;;;;;;;5040754;28;20057;-49
2022/05/23 08:22:59;;;;;;;6.07;1.60;;;;;;;;;;5042256;28;20099;-51
2022/05/23 08:25:25;;;;;;;4.55;1.23;;;;;;;;;;5037422;28;20088;-50
2022/05/23 08:27:54;;;;;;;3.23;1.20;;;;;;;;;;5040532;28;20468;-52
2022/05/23 08:30:28;;;;;;;4.28;1.30;;;;;;;;;;5041949;28;20315;-51
2022/05/23 08:32:54;;;;;;;3.53;1.30;;;;;;;;;;5040792;28;20142;-51
2022/05/23 08:35:23;;;;;;;3.67;1.23;;;;;;;;;;5038481;28;20068;-48
2022/05/23 08:37:56;;;;;;;3.85;1.40;;;;;;;;;;5043242;28;20531;-52
2022/05/23 08:40:41;;;;;;;5.32;1.35;;;;;;;;;;5041340;28;20087;-52
2022/05/23 08:43:18;;;;;;;6.43;1.60;;;;;;;;;;5042883;28;20073;-52
2022/05/23 08:45:45;;;;;;;3.22;1.08;;;;;;;;;;5040268;28;20099;-52
2022/05/23 08:48:15;;;;;;;6.55;1.23;;;;;;;;;;5042227;28;20540;-54
2022/05/23 08:51:10;;;;;;;5.70;1.50;;;;;;;;;;5041077;28;20507;-51
2022/05/23 08:53:40;;;;;;;6.57;1.75;;;;;;;;;;5039332;28;20073;-55
2022/05/23 08:56:22;;;;;;;8.00;1.92;;;;;;;;;;5036325;28;20079;-49
2022/05/23 08:58:52;;;;;;;4.90;1.30;;;;;;;;;;5038247;28;20106;-49
2022/05/23 09:01:40;;;;;;;5.60;1.58;;;;;;;;;;5038943;28;20100;-52
2022/05/23 09:04:06;;;;;;;6.10;1.50;;;;;;;;;;5039627;28;20114;-52
2022/05/23 09:06:45;;;;;;;3.78;1.42;;;;;;;;;;5038995;28;20056;-51
2022/05/23 09:09:13;;;;;;;5.28;1.80;;;;;;;;;;5038220;28;20053;-54
2022/05/23 09:11:48;;;;;;;6.20;1.60;;;;;;;;;;5043506;28;20049;-50
2022/05/23 09:14:19;;;;;;;5.47;1.38;;;;;;;;;;5039956;28;20131;-58
2022/05/23 09:16:47;;;;;;;5.95;1.48;;;;;;;;;;5035964;28;20057;-53
2022/05/23 09:19:39;;;;;;;6.40;1.75;;;;;;;;;;5038167;28;20048;-53
2022/05/23 09:22:18;;;;;;;5.97;1.20;;;;;;;;;;5033931;28;20053;-51
2022/05/23 09:24:56;;;;;;;4.85;1.40;;;;;;;;;;5040941;28;20113;-51
2022/05/23 09:27:33;;;;;;;3.75;1.38;;;;;;;;;;5037869;28;20140;-48
2022/05/23 09:30:08;;;;;;;9.88;1.80;;;;;;;;;;5039851;28;20104;-54
2022/05/23 09:32:36;;;;;;;5.90;1.45;;;;;;;;;;5039368;28;20049;-50
2022/05/23 09:35:06;;;;;;;10.55;1.70;;;;;;;;;;5036757;28;20122;-51
2022/05/23 09:37:46;;;;;;;4.07;1.27;;;;;;;;;;5035294;28;20130;-49
2022/05/23 09:40:25;;;;;;;7.18;1.58;;;;;;;;;;5038059;28;20451;-47
2022/05/23 09:49:30;;;;;;;5.45;1.58;;;;;;;;;;5038898;28;20057;-55
2022/05/23 09:52:06;;;;;;;2.60;1.42;;;;;;;;;;5039801;28;20060;-49
2022/05/23 09:54:46;;;;;;;4.93;1.40;;;;;;;;;;5034970;28;20041;-55
2022/05/23 09:57:32;;;;;;;9.43;1.65;;;;;;;;;;5040822;28;20092;-55
2022/05/23 10:00:20;;;;;;;2.22;1.20;;;;;;;;;;5038748;28;20088;-52
2022/05/23 10:03:00;;;;;;;5.60;1.48;;;;;;;;;;5039245;28;20096;-54
2022/05/23 10:05:36;;;;;;;4.65;1.58;;;;;;;;;;5037254;28;20083;-52
2022/05/23 10:08:04;;;;;;;4.30;1.33;;;;;;;;;;5038703;28;20053;-55
2022/05/23 10:10:33;;;;;;;6.47;1.55;;;;;;;;;;5040929;28;20089;-58
2022/05/23 10:13:12;;;;;;;2.35;1.38;;;;;;;;;;5035127;28;20099;-58
2022/05/23 10:15:43;;;;;;;5.93;1.73;;;;;;;;;;5037777;28;20433;-58
2022/05/23 10:18:18;;;;;;;7.18;1.77;;;;;;;;;;5040903;28;20090;-58
2022/05/23 10:20:50;;;;;;;6.60;1.60;;;;;;;;;;5037581;28;20107;-58
2022/05/23 10:23:29;;;;;;;6.22;1.63;;;;;;;;;;5040608;28;20083;-58
2022/05/23 10:26:01;;;;;;;5.15;1.65;;;;;;;;;;5035279;28;20052;-56
2022/05/23 10:28:50;;;;;;;5.10;1.42;;;;;;;;;;5037204;28;20049;-58
2022/05/23 10:31:19;;;;;;;12.70;1.90;;;;;;;;;;5039270;28;20041;-49
2022/05/23 10:34:24;;;;;;;5.47;1.60;;;;;;;;;;5038406;28;20049;-49
2022/05/23 10:36:53;;;;;;;5.00;1.52;;;;;;;;;;4984036;28;20054;-51
2022/05/23 10:42:25;;;;;;;4.47;1.67;;;;;;;;;;5036190;28;20099;-53
2022/05/23 10:45:08;;;;;;;6.40;1.50;;;;;;;;;;5036637;28;20074;-49
2022/05/23 10:47:59;;;;;;;6.25;1.70;;;;;;;;;;5033524;28;20133;-45
2022/05/23 10:50:46;;;;;;;4.78;2.15;;;;;;;;;;5017778;28;20639;-53
2022/05/23 10:53:31;;;;;;;2.70;1.27;;;;;;;;;;5016191;28;20045;-53
2022/05/23 10:56:40;;;;;;;5.00;1.60;;;;;;;;;;5018483;28;20150;-47
2022/05/23 10:59:19;;;;;;;6.93;1.88;;;;;;;;;;4920335;29;20048;-53
2022/05/23 11:02:01;;;;;;;3.60;1.45;;;;;;;;;;5010559;28;20085;-49
2022/05/23 11:04:30;;;;;;;3.60;1.35;;;;;;;;;;5015894;28;20089;-53
2022/05/23 11:07:11;;;;;;;3.85;1.23;;;;;;;;;;5020162;28;20065;-52
2022/05/23 11:09:49;;;;;;;5.55;1.85;;;;;;;;;;5017720;28;20081;-50
2022/05/23 11:12:41;;;;;;;2.20;1.17;;;;;;;;;;5012270;28;20052;-49
2022/05/23 11:15:26;;;;;;;4.45;1.50;;;;;;;;;;5017126;28;20049;-54
2022/05/23 11:18:02;;;;;;;3.03;1.52;;;;;;;;;;5017914;28;20100;-50
2022/05/23 11:20:32;;;;;;;5.05;1.58;;;;;;;;;;5016558;28;20061;-52
2022/05/23 11:23:18;;;;;;;5.88;1.50;;;;;;;;;;5015236;28;20073;-54
2022/05/23 11:25:56;;;;;;;5.25;1.73;;;;;;;;;;5022872;28;20563;-51
2022/05/23 11:34:32;;;;;;;7.53;1.50;;;;;;;;;;5018446;28;20041;-53
2022/05/23 11:39:44;;;;;;;8.00;1.77;;;;;;;;;;5014521;28;20089;-53
2022/05/23 11:42:27;;;;;;;5.60;1.75;;;;;;;;;;5014504;28;20876;-53
2022/05/23 11:44:55;;;;;;;3.80;1.63;;;;;;;;;;5016131;28;20049;-55
2022/05/23 11:47:52;;;;;;;5.40;1.52;;;;;;;;;;5015506;28;20096;-57
2022/05/23 11:50:34;;;;;;;2.90;1.35;;;;;;;;;;5017373;28;20164;-46
2022/05/23 11:53:11;;;;;;;5.35;1.67;;;;;;;;;;5018694;28;20104;-46
2022/05/23 11:55:55;;;;;;;5.60;1.80;;;;;;;;;;5016903;28;20478;-49
2022/05/23 11:58:48;;;;;;;2.60;1.17;;;;;;;;;;5018071;28;20053;-52
2022/05/23 15:28:56;;;;;;;3.00;1.50;;;;;;;;;;4814251;27;8332474;-59
2022/05/23 15:31:29;;;;;;;;;;;;;;;;;;5104549;28;20286;-59
2022/05/23 15:33:57;;;;;;;3.00;1.50;;;;;;;;;;5107817;28;20299;-59
2022/05/23 15:36:24;;;;;;;3.25;1.45;;;;;;;;;;5104048;28;20075;-49
2022/05/23 15:38:57;;;;;;;2.33;1.42;;;;;;;;;;5106393;28;20089;-45
2022/05/23 15:41:24;;;;;;;4.13;1.67;;;;;;;;;;5104904;28;20572;-48
2022/05/23 15:43:50;;;;;;;2.17;1.40;;;;;;;;;;5104184;28;20059;-45
2022/05/23 15:46:26;;;;;;;3.13;1.60;;;;;;;;;;5104331;28;20044;-49
2022/05/23 15:48:53;;;;;;;5.10;1.85;;;;;;;;;;5103216;28;20044;-50
2022/05/23 15:51:19;;;;;;;2.78;1.60;;;;;;;;;;5106223;28;20040;-51
2022/05/23 15:53:52;;;;;;;5.50;2.10;;;;;;;;;;5099375;28;20524;-52
2022/05/23 15:56:20;;;;;;;3.38;1.65;;;;;;;;;;5100765;28;20174;-52
2022/05/23 15:58:47;;;;;;;3.70;1.60;;;;;;;;;;5100139;28;20120;-48
2022/05/23 16:01:21;;;;;;;5.00;1.65;;;;;;;;;;5100688;28;20471;-52
2022/05/23 16:03:48;;;;;;;;;;;;;;;;;;5103717;28;20130;-47
2022/05/23 16:06:14;;;;;;;2.95;1.60;;;;;;;;;;5106753;28;20288;-50
2022/05/23 16:08:52;;;;;;;4.88;1.80;;;;;;;;;;5104213;28;20097;-48
2022/05/23 16:11:20;;;;;;;3.05;2.00;;;;;;;;;;5103896;28;20480;-56
2022/05/23 16:13:47;;;;;;;4.30;1.50;;;;;;;;;;5102307;28;20048;-58
2022/05/23 16:16:21;;;;;;;3.72;1.80;;;;;;;;;;5104187;28;20144;-51
2022/05/23 16:18:49;;;;;;;4.43;2.20;;;;;;;;;;5104896;28;20130;-49
2022/05/23 16:21:15;;;;;;;7.10;2.00;;;;;;;;;;5104411;28;20075;-46
2022/05/23 16:23:48;;;;;;;2.10;1.73;;;;;;;;;;5103761;28;20094;-50
2022/05/23 16:26:15;;;;;;;5.35;1.90;;;;;;;;;;5102796;28;20108;-48
2022/05/23 16:28:48;;;;;;;2.88;1.75;;;;;;;;;;5094468;28;20083;-52
2022/05/23 16:31:26;;;;;;;5.45;1.75;;;;;;;;;;5090011;28;20089;-56
2022/05/23 16:36:52;;;;;;;6.63;2.10;;;;;;;;;;5090028;28;20309;-56
2022/05/23 16:39:19;;;;;;;4.32;1.77;;;;;;;;;;5091171;28;20097;-51
2022/05/23 16:42:12;;;;;;;4.38;1.65;;;;;;;;;;5089186;28;20062;-56
2022/05/23 16:44:39;;;;;;;2.72;1.80;;;;;;;;;;5089068;28;20048;-57
2022/05/23 16:47:13;;;;;;;2.20;1.73;;;;;;;;;;5091706;28;20067;-55
2022/05/23 16:49:39;;;;;;;2.33;1.55;;;;;;;;;;5086952;28;20051;-55
2022/05/23 16:52:06;;;;;;;3.35;1.70;;;;;;;;;;5086431;28;20047;-58
2022/05/23 16:54:48;;;;;;;2.78;1.70;;;;;;;;;;5087935;28;20051;-56
2022/05/23 16:57:14;;;;;;;2.17;1.43;;;;;;;;;;5086424;28;20102;-53
2022/05/23 16:59:47;;;;;;;3.15;1.63;;;;;;;;;;5091758;28;20341;-57
2022/05/23 17:02:14;;;;;;;5.30;1.80;;;;;;;;;;5089330;28;20040;-56
2022/05/23 17:04:40;;;;;;;4.45;2.03;;;;;;;;;;5089892;28;20075;-56
2022/05/23 17:07:15;;;;;;;3.85;1.70;;;;;;;;;;5089426;28;20039;-56
2022/05/23 17:09:41;;;;;;;3.47;1.83;;;;;;;;;;5087034;28;20515;-55
2022/05/23 17:12:08;;;;;;;3.10;1.48;;;;;;;;;;5082502;28;20072;-51
2022/05/23 17:14:41;;;;;;;2.70;1.80;;;;;;;;;;5083300;28;20151;-51
2022/05/23 17:17:08;;;;;;;3.38;1.85;;;;;;;;;;5084839;28;20670;-51
2022/05/23 17:19:35;;;;;;;4.60;1.80;;;;;;;;;;5085431;28;20605;-51
2022/05/23 17:22:28;;;;;;;2.53;1.70;;;;;;;;;;5083922;28;20058;-52
2022/05/23 17:24:55;;;;;;;3.03;1.90;;;;;;;;;;5084285;28;20056;-53
2022/05/23 17:27:35;;;;;;;2.95;1.73;;;;;;;;;;5086349;28;20607;-51
2022/05/23 17:30:02;;;;;;;3.40;1.77;;;;;;;;;;5083613;28;20059;-54
2022/05/23 17:32:36;;;;;;;2.45;1.77;;;;;;;;;;5083799;28;20159;-52
2022/05/23 17:35:06;;;;;;;3.47;1.60;;;;;;;;;;5083493;28;20493;-53
2022/05/23 17:37:32;;;;;;;2.85;1.70;;;;;;;;;;5086832;28;20052;-53
2022/05/23 17:40:06;;;;;;;4.53;1.88;;;;;;;;;;5065279;28;20135;-50
2022/05/23 17:42:35;;;;;;;2.90;1.60;;;;;;;;;;5086151;28;20131;-55
2022/05/23 17:45:01;;;;;;;2.75;1.60;;;;;;;;;;5084052;28;20055;-54
2022/05/23 17:47:35;;;;;;;6.05;1.80;;;;;;;;;;5084073;28;20075;-51
2022/05/23 17:50:01;;;;;;;2.30;1.77;;;;;;;;;;5083446;28;20076;-49
2022/05/23 17:52:28;;;;;;;2.83;1.73;;;;;;;;;;5083733;28;21052;-48
2022/05/23 17:55:02;;;;;;;4.72;1.70;;;;;;;;;;5084313;28;20447;-52
2022/05/23 17:57:28;;;;;;;5.03;1.90;;;;;;;;;;5079947;28;20047;-52
2022/05/23 17:59:54;;;;;;;3.65;1.58;;;;;;;;;;5079153;28;20166;-50
2022/05/23 18:02:28;;;;;;;2.83;2.00;;;;;;;;;;5065664;28;20053;-48
2022/05/23 18:04:55;;;;;;;4.40;1.80;;;;;;;;;;5050419;28;20144;-55
2022/05/23 18:07:21;;;;;;;3.08;2.10;;;;;;;;;;5067272;28;20159;-57
2022/05/23 18:09:54;;;;;;;2.30;1.60;;;;;;;;;;5063915;28;20565;-56
2022/05/23 18:12:21;;;;;;;3.78;1.70;;;;;;;;;;5064884;28;20129;-53
2022/05/23 18:20:41;;;;;;;3.85;1.77;;;;;;;;;;5061068;28;20056;-52
2022/05/23 18:23:15;;;;;;;3.25;1.60;;;;;;;;;;5065133;28;20072;-54
2022/05/23 18:25:43;;;;;;;4.32;1.60;;;;;;;;;;5067127;28;20458;-51
2022/05/23 18:28:23;;;;;;;3.92;2.00;;;;;;;;;;5044188;28;20134;-60
2022/05/23 18:30:57;;;;;;;1.48;1.38;;;;;;;;;;5066934;28;20194;-61
2022/05/23 18:33:23;;;;;;;2.75;1.50;;;;;;;;;;5067068;28;20052;-60
2022/05/23 18:35:50;;;;;;;6.07;1.75;;;;;;;;;;5062978;28;20052;-58
2022/05/23 18:38:23;;;;;;;3.83;1.80;;;;;;;;;;5067100;28;20088;-59
2022/05/23 18:40:53;;;;;;;4.18;1.70;;;;;;;;;;5066218;28;20501;-58
2022/05/23 18:43:20;;;;;;;4.38;1.80;;;;;;;;;;5065701;28;20097;-53
2022/05/23 18:45:52;;;;;;;3.83;1.70;;;;;;;;;;5068727;28;20049;-58
2022/05/23 18:51:10;;;;;;;4.00;1.70;;;;;;;;;;5068900;28;20084;-58
2022/05/23 18:53:37;;;;;;;5.78;1.95;;;;;;;;;;5065613;28;20140;-59
2022/05/23 18:56:06;;;;;;;5.45;1.67;;;;;;;;;;5061644;28;20102;-59
2022/05/23 18:58:42;;;;;;;4.20;1.98;;;;;;;;;;5060431;28;20077;-58
2022/05/23 19:01:10;;;;;;;2.80;1.63;;;;;;;;;;5063633;28;20048;-58
2022/05/23 19:03:36;;;;;;;;;;;;;;;;;;5059493;28;20048;-48
2022/05/23 19:06:10;;;;;;;3.47;1.67;;;;;;;;;;5064688;28;20308;-50
2022/05/23 19:08:44;;;;;;;3.25;1.63;;;;;;;;;;5062014;28;20579;-50
2022/05/23 19:11:18;;;;;;;4.43;1.88;;;;;;;;;;5059411;28;20049;-54
2022/05/23 19:14:01;;;;;;;6.63;1.98;;;;;;;;;;5067084;28;20044;-51
2022/05/23 19:16:55;;;;;;;4.38;2.47;;;;;;;;;;5063248;28;20160;-50
2022/05/23 19:19:21;;;;;;;3.10;1.77;;;;;;;;;;5062706;28;20048;-53
2022/05/23 19:21:55;;;;;;;3.58;2.00;;;;;;;;;;5066237;28;20052;-49
2022/05/23 19:24:22;;;;;;;4.13;2.30;;;;;;;;;;5064669;28;20094;-49
2022/05/23 19:26:49;;;;;;;2.88;1.80;;;;;;;;;;5061590;28;20048;-46
2022/05/23 19:29:29;;;;;;;7.05;2.13;;;;;;;;;;5034945;28;20089;-46
2022/05/23 19:31:56;;;;;;;8.18;2.53;;;;;;;;;;5039350;28;20049;-46
2022/05/23 19:34:29;;;;;;;1.75;1.65;;;;;;;;;;5036721;28;20053;-47
2022/05/23 19:36:56;;;;;;;2.92;2.20;;;;;;;;;;5038537;28;20565;-48
2022/05/23 19:39:23;;;;;;;5.80;2.00;;;;;;;;;;5042202;28;20044;-48
2022/05/23 19:41:56;;;;;;;3.70;2.30;;;;;;;;;;5035933;28;20052;-57
2022/05/23 19:44:23;;;;;;;4.13;1.88;;;;;;;;;;5041585;28;20076;-60